sensor_id;sensor_type;location;lat;lon;timestamp;P1;durP1;ratioP1;P2;durP2;ratioP2
46411;SDS011;32113;42.012;24.870;2022-07-29T00:02:25;6.53;;;5.90;;
46411;SDS011;32113;42.012;24.870;2022-07-29T00:04:51;6.32;;;5.72;;
46411;SDS011;32113;42.012;24.870;2022-07-29T00:07:16;8.60;;;5.97;;
46411;SDS011;32113;42.012;24.870;2022-07-29T00:09:42;7.53;;;6.18;;
46411;SDS011;32113;42.012;24.870;2022-07-29T00:12:07;9.30;;;6.35;;
46411;SDS011;32113;42.012;24.870;2022-07-29T00:14:32;7.55;;;5.75;;
46411;SDS011;32113;42.012;24.870;2022-07-29T00:16:58;10.07;;;6.93;;
46411;SDS011;32113;42.012;24.870;2022-07-29T00:19:23;11.68;;;6.68;;
46411;SDS011;32113;42.012;24.870;2022-07-29T00:21:49;9.38;;;5.90;;
46411;SDS011;32113;42.012;24.870;2022-07-29T00:24:14;7.35;;;6.28;;
46411;SDS011;32113;42.012;24.870;2022-07-29T00:26:39;6.95;;;6.05;;
46411;SDS011;32113;42.012;24.870;2022-07-29T00:29:05;7.90;;;6.35;;
46411;SDS011;32113;42.012;24.870;2022-07-29T00:31:30;8.82;;;6.90;;
46411;SDS011;32113;42.012;24.870;2022-07-29T00:33:56;8.45;;;6.95;;
46411;SDS011;32113;42.012;24.870;2022-07-29T00:36:22;9.30;;;6.32;;
46411;SDS011;32113;42.012;24.870;2022-07-29T00:38:48;7.68;;;6.88;;
46411;SDS011;32113;42.012;24.870;2022-07-29T00:41:14;9.57;;;7.10;;
46411;SDS011;32113;42.012;24.870;2022-07-29T00:43:40;7.65;;;6.50;;
46411;SDS011;32113;42.012;24.870;2022-07-29T00:46:06;9.65;;;6.75;;
46411;SDS011;32113;42.012;24.870;2022-07-29T00:48:31;8.38;;;6.93;;
46411;SDS011;32113;42.012;24.870;2022-07-29T00:50:57;6.97;;;5.90;;
46411;SDS011;32113;42.012;24.870;2022-07-29T00:53:25;7.10;;;6.13;;
46411;SDS011;32113;42.012;24.870;2022-07-29T00:55:50;6.38;;;5.72;;
46411;SDS011;32113;42.012;24.870;2022-07-29T00:58:18;6.70;;;5.95;;
46411;SDS011;32113;42.012;24.870;2022-07-29T01:00:43;7.60;;;6.43;;
46411;SDS011;32113;42.012;24.870;2022-07-29T01:03:09;6.50;;;5.82;;
46411;SDS011;32113;42.012;24.870;2022-07-29T01:05:34;7.22;;;6.53;;
46411;SDS011;32113;42.012;24.870;2022-07-29T01:08:00;7.97;;;6.50;;
46411;SDS011;32113;42.012;24.870;2022-07-29T01:10:27;8.77;;;6.70;;
46411;SDS011;32113;42.012;24.870;2022-07-29T01:12:54;9.05;;;6.63;;
46411;SDS011;32113;42.012;24.870;2022-07-29T01:15:22;8.88;;;6.57;;
46411;SDS011;32113;42.012;24.870;2022-07-29T01:17:52;10.35;;;7.00;;
46411;SDS011;32113;42.012;24.870;2022-07-29T01:29:11;6.90;;;6.22;;
46411;SDS011;32113;42.012;24.870;2022-07-29T01:39:33;8.80;;;6.32;;
46411;SDS011;32113;42.012;24.870;2022-07-29T01:42:44;8.60;;;6.10;;
46411;SDS011;32113;42.012;24.870;2022-07-29T01:45:21;7.05;;;6.28;;
46411;SDS011;32113;42.012;24.870;2022-07-29T01:50:36;11.13;;;6.53;;
46411;SDS011;32113;42.012;24.870;2022-07-29T01:53:10;9.88;;;6.63;;
46411;SDS011;32113;42.012;24.870;2022-07-29T01:55:40;7.90;;;6.53;;
46411;SDS011;32113;42.012;24.870;2022-07-29T01:58:09;10.38;;;7.00;;
46411;SDS011;32113;42.012;24.870;2022-07-29T02:03:04;9.95;;;6.25;;
46411;SDS011;32113;42.012;24.870;2022-07-29T02:05:34;9.75;;;6.15;;
46411;SDS011;32113;42.012;24.870;2022-07-29T02:08:01;7.55;;;6.43;;
46411;SDS011;32113;42.012;24.870;2022-07-29T02:10:29;6.75;;;5.57;;
46411;SDS011;32113;42.012;24.870;2022-07-29T02:12:57;7.32;;;6.55;;
46411;SDS011;32113;42.012;24.870;2022-07-29T02:15:24;7.87;;;6.87;;
46411;SDS011;32113;42.012;24.870;2022-07-29T02:17:58;6.80;;;5.68;;
46411;SDS011;32113;42.012;24.870;2022-07-29T02:20:27;6.70;;;6.00;;
46411;SDS011;32113;42.012;24.870;2022-07-29T02:22:54;8.27;;;6.10;;
46411;SDS011;32113;42.012;24.870;2022-07-29T02:25:22;6.75;;;6.07;;
46411;SDS011;32113;42.012;24.870;2022-07-29T02:27:50;9.15;;;6.70;;
46411;SDS011;32113;42.012;24.870;2022-07-29T02:30:16;8.73;;;6.47;;
46411;SDS011;32113;42.012;24.870;2022-07-29T02:32:43;9.25;;;6.75;;
46411;SDS011;32113;42.012;24.870;2022-07-29T02:35:12;7.18;;;6.10;;
46411;SDS011;32113;42.012;24.870;2022-07-29T02:37:39;8.48;;;6.22;;
46411;SDS011;32113;42.012;24.870;2022-07-29T02:40:06;7.97;;;6.85;;
46411;SDS011;32113;42.012;24.870;2022-07-29T02:42:36;8.57;;;6.50;;
46411;SDS011;32113;42.012;24.870;2022-07-29T02:47:34;10.35;;;6.47;;
46411;SDS011;32113;42.012;24.870;2022-07-29T02:50:12;8.02;;;5.45;;
46411;SDS011;32113;42.012;24.870;2022-07-29T02:57:57;8.32;;;6.18;;
46411;SDS011;32113;42.012;24.870;2022-07-29T03:00:29;6.20;;;5.43;;
46411;SDS011;32113;42.012;24.870;2022-07-29T03:02:56;7.78;;;6.22;;
46411;SDS011;32113;42.012;24.870;2022-07-29T03:05:24;6.95;;;5.90;;
46411;SDS011;32113;42.012;24.870;2022-07-29T03:07:53;7.97;;;6.00;;
46411;SDS011;32113;42.012;24.870;2022-07-29T03:10:21;7.45;;;6.13;;
46411;SDS011;32113;42.012;24.870;2022-07-29T03:12:47;8.00;;;6.47;;
46411;SDS011;32113;42.012;24.870;2022-07-29T03:15:13;6.10;;;5.50;;
46411;SDS011;32113;42.012;24.870;2022-07-29T03:17:39;7.45;;;5.57;;
46411;SDS011;32113;42.012;24.870;2022-07-29T03:20:06;6.13;;;5.53;;
46411;SDS011;32113;42.012;24.870;2022-07-29T03:22:32;7.03;;;6.03;;
46411;SDS011;32113;42.012;24.870;2022-07-29T03:25:10;8.27;;;5.97;;
46411;SDS011;32113;42.012;24.870;2022-07-29T03:27:36;7.15;;;5.82;;
46411;SDS011;32113;42.012;24.870;2022-07-29T03:30:02;7.10;;;5.13;;
46411;SDS011;32113;42.012;24.870;2022-07-29T03:32:28;8.50;;;5.38;;
46411;SDS011;32113;42.012;24.870;2022-07-29T03:34:53;8.07;;;5.47;;
46411;SDS011;32113;42.012;24.870;2022-07-29T03:37:19;6.53;;;5.53;;
46411;SDS011;32113;42.012;24.870;2022-07-29T03:39:44;7.97;;;5.68;;
46411;SDS011;32113;42.012;24.870;2022-07-29T03:42:13;8.30;;;5.95;;
46411;SDS011;32113;42.012;24.870;2022-07-29T03:44:41;8.68;;;6.18;;
46411;SDS011;32113;42.012;24.870;2022-07-29T03:47:09;7.95;;;6.00;;
46411;SDS011;32113;42.012;24.870;2022-07-29T03:49:38;8.18;;;6.15;;
46411;SDS011;32113;42.012;24.870;2022-07-29T03:52:05;7.75;;;6.43;;
46411;SDS011;32113;42.012;24.870;2022-07-29T03:54:31;9.48;;;5.53;;
46411;SDS011;32113;42.012;24.870;2022-07-29T03:56:57;8.65;;;5.90;;
46411;SDS011;32113;42.012;24.870;2022-07-29T03:59:26;7.97;;;5.78;;
46411;SDS011;32113;42.012;24.870;2022-07-29T04:01:52;8.77;;;5.82;;
46411;SDS011;32113;42.012;24.870;2022-07-29T04:04:19;11.35;;;5.97;;
46411;SDS011;32113;42.012;24.870;2022-07-29T04:06:45;8.20;;;6.20;;
46411;SDS011;32113;42.012;24.870;2022-07-29T04:09:11;10.52;;;5.53;;
46411;SDS011;32113;42.012;24.870;2022-07-29T04:11:40;6.15;;;5.55;;
46411;SDS011;32113;42.012;24.870;2022-07-29T04:14:06;7.35;;;5.90;;
46411;SDS011;32113;42.012;24.870;2022-07-29T04:16:31;8.38;;;6.00;;
46411;SDS011;32113;42.012;24.870;2022-07-29T04:18:57;7.53;;;5.82;;
46411;SDS011;32113;42.012;24.870;2022-07-29T04:21:22;7.72;;;5.85;;
46411;SDS011;32113;42.012;24.870;2022-07-29T04:23:48;8.02;;;6.10;;
46411;SDS011;32113;42.012;24.870;2022-07-29T04:26:17;6.38;;;5.50;;
46411;SDS011;32113;42.012;24.870;2022-07-29T04:28:42;8.93;;;6.20;;
46411;SDS011;32113;42.012;24.870;2022-07-29T04:31:08;8.82;;;6.10;;
46411;SDS011;32113;42.012;24.870;2022-07-29T04:33:34;6.63;;;5.78;;
46411;SDS011;32113;42.012;24.870;2022-07-29T04:36:00;6.50;;;5.65;;
46411;SDS011;32113;42.012;24.870;2022-07-29T04:38:25;7.10;;;5.82;;
46411;SDS011;32113;42.012;24.870;2022-07-29T04:40:51;10.57;;;5.72;;
46411;SDS011;32113;42.012;24.870;2022-07-29T04:43:16;6.53;;;5.80;;
46411;SDS011;32113;42.012;24.870;2022-07-29T04:45:42;10.75;;;5.93;;
46411;SDS011;32113;42.012;24.870;2022-07-29T04:48:07;6.95;;;5.80;;
46411;SDS011;32113;42.012;24.870;2022-07-29T04:50:33;10.20;;;5.65;;
46411;SDS011;32113;42.012;24.870;2022-07-29T04:52:58;8.32;;;5.93;;
46411;SDS011;32113;42.012;24.870;2022-07-29T04:55:24;9.40;;;6.30;;
46411;SDS011;32113;42.012;24.870;2022-07-29T04:57:50;10.02;;;5.78;;
46411;SDS011;32113;42.012;24.870;2022-07-29T05:00:15;7.78;;;5.75;;
46411;SDS011;32113;42.012;24.870;2022-07-29T05:02:41;8.30;;;5.78;;
46411;SDS011;32113;42.012;24.870;2022-07-29T05:05:07;6.70;;;5.45;;
46411;SDS011;32113;42.012;24.870;2022-07-29T05:07:32;9.93;;;6.47;;
46411;SDS011;32113;42.012;24.870;2022-07-29T05:09:58;9.27;;;6.10;;
46411;SDS011;32113;42.012;24.870;2022-07-29T05:12:24;8.70;;;6.00;;
46411;SDS011;32113;42.012;24.870;2022-07-29T05:14:49;7.35;;;5.75;;
46411;SDS011;32113;42.012;24.870;2022-07-29T05:17:15;9.90;;;5.78;;
46411;SDS011;32113;42.012;24.870;2022-07-29T05:19:40;8.60;;;6.40;;
46411;SDS011;32113;42.012;24.870;2022-07-29T05:22:05;9.55;;;5.55;;
46411;SDS011;32113;42.012;24.870;2022-07-29T05:24:31;6.82;;;5.88;;
46411;SDS011;32113;42.012;24.870;2022-07-29T05:26:56;7.80;;;5.80;;
46411;SDS011;32113;42.012;24.870;2022-07-29T05:29:22;9.73;;;5.70;;
46411;SDS011;32113;42.012;24.870;2022-07-29T05:31:47;9.05;;;5.57;;
46411;SDS011;32113;42.012;24.870;2022-07-29T05:34:12;8.48;;;5.28;;
46411;SDS011;32113;42.012;24.870;2022-07-29T05:36:38;7.72;;;5.45;;
46411;SDS011;32113;42.012;24.870;2022-07-29T05:39:03;7.28;;;5.45;;
46411;SDS011;32113;42.012;24.870;2022-07-29T05:41:31;10.52;;;6.15;;
46411;SDS011;32113;42.012;24.870;2022-07-29T05:43:57;9.07;;;5.53;;
46411;SDS011;32113;42.012;24.870;2022-07-29T05:46:23;5.28;;;4.63;;
46411;SDS011;32113;42.012;24.870;2022-07-29T05:48:49;8.93;;;5.95;;
46411;SDS011;32113;42.012;24.870;2022-07-29T05:51:14;10.43;;;5.78;;
46411;SDS011;32113;42.012;24.870;2022-07-29T05:53:39;8.15;;;6.03;;
46411;SDS011;32113;42.012;24.870;2022-07-29T05:56:05;8.95;;;6.25;;
46411;SDS011;32113;42.012;24.870;2022-07-29T05:58:31;13.82;;;6.50;;
46411;SDS011;32113;42.012;24.870;2022-07-29T06:00:57;7.80;;;6.25;;
46411;SDS011;32113;42.012;24.870;2022-07-29T06:03:25;7.32;;;6.03;;
46411;SDS011;32113;42.012;24.870;2022-07-29T06:05:51;8.52;;;5.57;;
46411;SDS011;32113;42.012;24.870;2022-07-29T06:08:17;8.30;;;5.55;;
46411;SDS011;32113;42.012;24.870;2022-07-29T06:10:42;8.40;;;5.43;;
46411;SDS011;32113;42.012;24.870;2022-07-29T06:13:08;6.90;;;5.97;;
46411;SDS011;32113;42.012;24.870;2022-07-29T06:15:33;8.73;;;5.68;;
46411;SDS011;32113;42.012;24.870;2022-07-29T06:17:59;10.82;;;6.40;;
46411;SDS011;32113;42.012;24.870;2022-07-29T06:20:24;7.13;;;5.32;;
46411;SDS011;32113;42.012;24.870;2022-07-29T06:22:50;10.07;;;5.30;;
46411;SDS011;32113;42.012;24.870;2022-07-29T06:25:15;7.07;;;5.82;;
46411;SDS011;32113;42.012;24.870;2022-07-29T06:27:41;9.73;;;5.70;;
46411;SDS011;32113;42.012;24.870;2022-07-29T06:30:06;8.52;;;5.40;;
46411;SDS011;32113;42.012;24.870;2022-07-29T06:32:32;8.23;;;6.18;;
46411;SDS011;32113;42.012;24.870;2022-07-29T06:34:58;6.70;;;5.45;;
46411;SDS011;32113;42.012;24.870;2022-07-29T06:37:23;6.32;;;5.28;;
46411;SDS011;32113;42.012;24.870;2022-07-29T06:39:49;8.05;;;5.93;;
46411;SDS011;32113;42.012;24.870;2022-07-29T06:42:35;9.15;;;5.63;;
46411;SDS011;32113;42.012;24.870;2022-07-29T06:45:00;7.00;;;5.57;;
46411;SDS011;32113;42.012;24.870;2022-07-29T06:47:26;5.82;;;5.10;;
46411;SDS011;32113;42.012;24.870;2022-07-29T06:49:51;6.93;;;5.38;;
46411;SDS011;32113;42.012;24.870;2022-07-29T06:52:16;7.15;;;5.60;;
46411;SDS011;32113;42.012;24.870;2022-07-29T06:54:42;8.07;;;6.15;;
46411;SDS011;32113;42.012;24.870;2022-07-29T06:57:12;6.55;;;5.07;;
46411;SDS011;32113;42.012;24.870;2022-07-29T06:59:38;6.93;;;4.25;;
46411;SDS011;32113;42.012;24.870;2022-07-29T07:02:03;7.85;;;4.38;;
46411;SDS011;32113;42.012;24.870;2022-07-29T07:04:29;6.68;;;4.68;;
46411;SDS011;32113;42.012;24.870;2022-07-29T07:06:54;7.80;;;4.82;;
46411;SDS011;32113;42.012;24.870;2022-07-29T07:09:20;8.27;;;4.78;;
46411;SDS011;32113;42.012;24.870;2022-07-29T07:11:46;8.75;;;4.72;;
46411;SDS011;32113;42.012;24.870;2022-07-29T07:14:11;5.63;;;4.50;;
46411;SDS011;32113;42.012;24.870;2022-07-29T07:16:37;7.28;;;4.50;;
46411;SDS011;32113;42.012;24.870;2022-07-29T07:19:02;10.20;;;4.88;;
46411;SDS011;32113;42.012;24.870;2022-07-29T07:21:28;7.60;;;4.72;;
46411;SDS011;32113;42.012;24.870;2022-07-29T07:23:53;7.30;;;4.43;;
46411;SDS011;32113;42.012;24.870;2022-07-29T07:26:19;7.13;;;4.88;;
46411;SDS011;32113;42.012;24.870;2022-07-29T07:28:44;7.97;;;4.72;;
46411;SDS011;32113;42.012;24.870;2022-07-29T07:31:10;8.15;;;4.28;;
46411;SDS011;32113;42.012;24.870;2022-07-29T07:33:36;10.75;;;4.70;;
46411;SDS011;32113;42.012;24.870;2022-07-29T07:36:01;10.02;;;4.50;;
46411;SDS011;32113;42.012;24.870;2022-07-29T07:38:28;8.10;;;4.68;;
46411;SDS011;32113;42.012;24.870;2022-07-29T07:40:53;11.43;;;4.85;;
46411;SDS011;32113;42.012;24.870;2022-07-29T07:43:19;8.85;;;4.43;;
46411;SDS011;32113;42.012;24.870;2022-07-29T07:45:44;8.82;;;4.60;;
46411;SDS011;32113;42.012;24.870;2022-07-29T07:48:09;12.05;;;4.40;;
46411;SDS011;32113;42.012;24.870;2022-07-29T07:50:35;8.95;;;3.92;;
46411;SDS011;32113;42.012;24.870;2022-07-29T07:53:02;6.72;;;4.20;;
46411;SDS011;32113;42.012;24.870;2022-07-29T07:55:28;7.50;;;4.22;;
46411;SDS011;32113;42.012;24.870;2022-07-29T07:57:53;9.60;;;4.18;;
46411;SDS011;32113;42.012;24.870;2022-07-29T08:00:20;9.65;;;5.03;;
46411;SDS011;32113;42.012;24.870;2022-07-29T08:02:46;6.70;;;4.53;;
46411;SDS011;32113;42.012;24.870;2022-07-29T08:05:12;8.43;;;4.95;;
46411;SDS011;32113;42.012;24.870;2022-07-29T08:07:42;9.75;;;4.65;;
46411;SDS011;32113;42.012;24.870;2022-07-29T08:10:08;6.80;;;4.15;;
46411;SDS011;32113;42.012;24.870;2022-07-29T08:12:34;5.75;;;3.67;;
46411;SDS011;32113;42.012;24.870;2022-07-29T08:14:59;8.30;;;4.60;;
46411;SDS011;32113;42.012;24.870;2022-07-29T08:17:25;7.32;;;4.00;;
46411;SDS011;32113;42.012;24.870;2022-07-29T08:19:51;5.97;;;3.30;;
46411;SDS011;32113;42.012;24.870;2022-07-29T08:22:17;5.57;;;3.60;;
46411;SDS011;32113;42.012;24.870;2022-07-29T08:24:42;5.40;;;3.45;;
46411;SDS011;32113;42.012;24.870;2022-07-29T08:27:08;7.65;;;4.40;;
46411;SDS011;32113;42.012;24.870;2022-07-29T08:29:35;6.07;;;3.47;;
46411;SDS011;32113;42.012;24.870;2022-07-29T08:32:01;3.97;;;3.13;;
46411;SDS011;32113;42.012;24.870;2022-07-29T08:34:27;6.88;;;3.30;;
46411;SDS011;32113;42.012;24.870;2022-07-29T08:36:53;5.53;;;3.10;;
46411;SDS011;32113;42.012;24.870;2022-07-29T08:39:19;4.50;;;2.65;;
46411;SDS011;32113;42.012;24.870;2022-07-29T08:41:44;3.53;;;2.30;;
46411;SDS011;32113;42.012;24.870;2022-07-29T08:44:10;5.70;;;2.60;;
46411;SDS011;32113;42.012;24.870;2022-07-29T08:46:39;3.53;;;2.78;;
46411;SDS011;32113;42.012;24.870;2022-07-29T08:49:04;6.53;;;2.67;;
46411;SDS011;32113;42.012;24.870;2022-07-29T08:51:30;3.47;;;2.28;;
46411;SDS011;32113;42.012;24.870;2022-07-29T08:53:58;3.97;;;2.65;;
46411;SDS011;32113;42.012;24.870;2022-07-29T08:56:24;3.47;;;2.45;;
46411;SDS011;32113;42.012;24.870;2022-07-29T08:58:50;4.18;;;2.33;;
46411;SDS011;32113;42.012;24.870;2022-07-29T09:01:16;3.08;;;2.22;;
46411;SDS011;32113;42.012;24.870;2022-07-29T09:03:46;3.40;;;2.20;;
46411;SDS011;32113;42.012;24.870;2022-07-29T09:06:15;5.55;;;2.33;;
46411;SDS011;32113;42.012;24.870;2022-07-29T09:08:43;5.32;;;2.38;;
46411;SDS011;32113;42.012;24.870;2022-07-29T09:11:09;7.90;;;2.30;;
46411;SDS011;32113;42.012;24.870;2022-07-29T09:13:36;3.80;;;2.20;;
46411;SDS011;32113;42.012;24.870;2022-07-29T09:16:02;4.03;;;2.33;;
46411;SDS011;32113;42.012;24.870;2022-07-29T09:21:00;2.88;;;1.98;;
46411;SDS011;32113;42.012;24.870;2022-07-29T09:24:05;3.35;;;1.90;;
46411;SDS011;32113;42.012;24.870;2022-07-29T09:26:33;3.00;;;2.20;;
46411;SDS011;32113;42.012;24.870;2022-07-29T09:29:07;3.83;;;2.65;;
46411;SDS011;32113;42.012;24.870;2022-07-29T09:31:37;4.65;;;2.80;;
46411;SDS011;32113;42.012;24.870;2022-07-29T09:34:05;9.10;;;3.63;;
46411;SDS011;32113;42.012;24.870;2022-07-29T09:36:38;2.20;;;1.85;;
46411;SDS011;32113;42.012;24.870;2022-07-29T09:39:04;3.30;;;1.98;;
46411;SDS011;32113;42.012;24.870;2022-07-29T09:41:29;5.13;;;3.07;;
46411;SDS011;32113;42.012;24.870;2022-07-29T09:44:09;5.40;;;2.80;;
46411;SDS011;32113;42.012;24.870;2022-07-29T09:46:35;3.27;;;2.03;;
46411;SDS011;32113;42.012;24.870;2022-07-29T09:49:11;2.33;;;2.10;;
46411;SDS011;32113;42.012;24.870;2022-07-29T09:51:38;8.77;;;3.78;;
46411;SDS011;32113;42.012;24.870;2022-07-29T09:54:22;5.17;;;2.90;;
46411;SDS011;32113;42.012;24.870;2022-07-29T09:56:49;3.80;;;2.10;;
46411;SDS011;32113;42.012;24.870;2022-07-29T09:59:15;4.77;;;2.23;;
46411;SDS011;32113;42.012;24.870;2022-07-29T10:01:41;3.03;;;2.23;;
46411;SDS011;32113;42.012;24.870;2022-07-29T10:04:06;4.57;;;2.00;;
46411;SDS011;32113;42.012;24.870;2022-07-29T10:06:32;2.53;;;1.73;;
46411;SDS011;32113;42.012;24.870;2022-07-29T10:09:10;2.13;;;1.80;;
46411;SDS011;32113;42.012;24.870;2022-07-29T10:11:36;3.03;;;2.00;;
46411;SDS011;32113;42.012;24.870;2022-07-29T10:14:02;3.37;;;2.30;;
46411;SDS011;32113;42.012;24.870;2022-07-29T10:16:28;5.05;;;2.65;;
46411;SDS011;32113;42.012;24.870;2022-07-29T10:18:58;3.50;;;2.42;;
46411;SDS011;32113;42.012;24.870;2022-07-29T10:21:24;3.20;;;2.50;;
46411;SDS011;32113;42.012;24.870;2022-07-29T10:23:50;6.90;;;2.67;;
46411;SDS011;32113;42.012;24.870;2022-07-29T10:26:17;3.03;;;2.20;;
46411;SDS011;32113;42.012;24.870;2022-07-29T10:28:44;2.63;;;2.00;;
46411;SDS011;32113;42.012;24.870;2022-07-29T10:31:11;3.13;;;2.10;;
46411;SDS011;32113;42.012;24.870;2022-07-29T10:34:05;4.15;;;2.63;;
46411;SDS011;32113;42.012;24.870;2022-07-29T10:36:56;4.72;;;2.40;;
46411;SDS011;32113;42.012;24.870;2022-07-29T10:44:23;3.28;;;2.60;;
46411;SDS011;32113;42.012;24.870;2022-07-29T10:46:50;4.45;;;2.90;;
46411;SDS011;32113;42.012;24.870;2022-07-29T10:52:01;4.20;;;2.47;;
46411;SDS011;32113;42.012;24.870;2022-07-29T10:57:12;3.20;;;2.13;;
46411;SDS011;32113;42.012;24.870;2022-07-29T10:59:38;3.72;;;2.38;;
46411;SDS011;32113;42.012;24.870;2022-07-29T11:07:29;8.63;;;3.15;;
46411;SDS011;32113;42.012;24.870;2022-07-29T11:31:16;4.27;;;2.27;;
46411;SDS011;32113;42.012;24.870;2022-07-29T11:33:57;6.38;;;2.60;;
46411;SDS011;32113;42.012;24.870;2022-07-29T11:39:34;6.07;;;2.65;;
46411;SDS011;32113;42.012;24.870;2022-07-29T11:47:19;4.07;;;2.60;;
46411;SDS011;32113;42.012;24.870;2022-07-29T11:49:46;3.95;;;2.47;;
46411;SDS011;32113;42.012;24.870;2022-07-29T11:52:12;5.68;;;2.50;;
46411;SDS011;32113;42.012;24.870;2022-07-29T11:54:38;5.60;;;2.50;;
46411;SDS011;32113;42.012;24.870;2022-07-29T11:57:06;4.57;;;2.30;;
46411;SDS011;32113;42.012;24.870;2022-07-29T11:59:32;9.03;;;3.23;;
46411;SDS011;32113;42.012;24.870;2022-07-29T12:02:04;11.07;;;2.80;;
46411;SDS011;32113;42.012;24.870;2022-07-29T12:04:30;4.07;;;2.33;;
46411;SDS011;32113;42.012;24.870;2022-07-29T12:06:55;3.33;;;2.30;;
46411;SDS011;32113;42.012;24.870;2022-07-29T12:09:21;3.43;;;3.00;;
46411;SDS011;32113;42.012;24.870;2022-07-29T12:11:48;19.80;;;3.78;;
46411;SDS011;32113;42.012;24.870;2022-07-29T12:14:24;4.32;;;2.50;;
46411;SDS011;32113;42.012;24.870;2022-07-29T12:16:57;7.38;;;3.20;;
46411;SDS011;32113;42.012;24.870;2022-07-29T12:19:25;3.70;;;2.67;;
46411;SDS011;32113;42.012;24.870;2022-07-29T12:21:52;3.90;;;2.58;;
46411;SDS011;32113;42.012;24.870;2022-07-29T12:24:19;5.07;;;2.50;;
46411;SDS011;32113;42.012;24.870;2022-07-29T12:26:52;5.97;;;2.60;;
46411;SDS011;32113;42.012;24.870;2022-07-29T12:29:19;4.30;;;2.75;;
46411;SDS011;32113;42.012;24.870;2022-07-29T12:31:45;3.17;;;2.57;;
46411;SDS011;32113;42.012;24.870;2022-07-29T12:34:15;2.70;;;2.40;;
46411;SDS011;32113;42.012;24.870;2022-07-29T12:36:41;2.97;;;2.45;;
46411;SDS011;32113;42.012;24.870;2022-07-29T12:39:08;3.95;;;2.25;;
46411;SDS011;32113;42.012;24.870;2022-07-29T12:41:34;4.00;;;2.47;;
46411;SDS011;32113;42.012;24.870;2022-07-29T12:44:00;5.80;;;2.50;;
46411;SDS011;32113;42.012;24.870;2022-07-29T12:46:25;5.10;;;2.57;;
46411;SDS011;32113;42.012;24.870;2022-07-29T12:48:52;3.57;;;2.30;;
46411;SDS011;32113;42.012;24.870;2022-07-29T12:51:31;5.45;;;2.58;;
46411;SDS011;32113;42.012;24.870;2022-07-29T12:54:03;3.63;;;2.42;;
46411;SDS011;32113;42.012;24.870;2022-07-29T12:56:33;3.78;;;2.30;;
46411;SDS011;32113;42.012;24.870;2022-07-29T12:58:59;3.20;;;2.72;;
46411;SDS011;32113;42.012;24.870;2022-07-29T13:01:25;3.30;;;2.70;;
46411;SDS011;32113;42.012;24.870;2022-07-29T13:03:56;4.35;;;2.90;;
46411;SDS011;32113;42.012;24.870;2022-07-29T13:09:13;4.78;;;2.92;;
46411;SDS011;32113;42.012;24.870;2022-07-29T13:11:45;3.15;;;2.60;;
46411;SDS011;32113;42.012;24.870;2022-07-29T13:14:13;5.00;;;2.88;;
46411;SDS011;32113;42.012;24.870;2022-07-29T13:17:01;7.13;;;3.10;;
46411;SDS011;32113;42.012;24.870;2022-07-29T13:22:03;4.70;;;3.38;;
46411;SDS011;32113;42.012;24.870;2022-07-29T13:26:55;10.63;;;3.20;;
46411;SDS011;32113;42.012;24.870;2022-07-29T13:29:20;4.90;;;3.13;;
46411;SDS011;32113;42.012;24.870;2022-07-29T13:31:45;6.22;;;3.63;;
46411;SDS011;32113;42.012;24.870;2022-07-29T13:34:11;6.60;;;2.78;;
46411;SDS011;32113;42.012;24.870;2022-07-29T13:36:36;5.35;;;3.05;;
46411;SDS011;32113;42.012;24.870;2022-07-29T13:39:02;18.07;;;3.47;;
46411;SDS011;32113;42.012;24.870;2022-07-29T13:41:28;7.63;;;3.00;;
46411;SDS011;32113;42.012;24.870;2022-07-29T13:43:54;5.87;;;3.50;;
46411;SDS011;32113;42.012;24.870;2022-07-29T13:46:19;4.53;;;3.37;;
46411;SDS011;32113;42.012;24.870;2022-07-29T13:48:45;7.43;;;3.45;;
46411;SDS011;32113;42.012;24.870;2022-07-29T13:51:10;3.22;;;2.85;;
46411;SDS011;32113;42.012;24.870;2022-07-29T13:53:35;7.77;;;3.00;;
46411;SDS011;32113;42.012;24.870;2022-07-29T13:56:01;5.37;;;3.10;;
46411;SDS011;32113;42.012;24.870;2022-07-29T13:58:27;3.80;;;2.97;;
46411;SDS011;32113;42.012;24.870;2022-07-29T14:00:52;4.20;;;2.67;;
46411;SDS011;32113;42.012;24.870;2022-07-29T14:03:18;7.70;;;3.40;;
46411;SDS011;32113;42.012;24.870;2022-07-29T14:05:43;4.63;;;3.10;;
46411;SDS011;32113;42.012;24.870;2022-07-29T14:08:08;4.50;;;3.27;;
46411;SDS011;32113;42.012;24.870;2022-07-29T14:10:34;7.20;;;3.90;;
46411;SDS011;32113;42.012;24.870;2022-07-29T14:12:59;4.90;;;2.87;;
46411;SDS011;32113;42.012;24.870;2022-07-29T14:15:25;3.53;;;2.60;;
46411;SDS011;32113;42.012;24.870;2022-07-29T14:17:50;4.23;;;2.23;;
46411;SDS011;32113;42.012;24.870;2022-07-29T14:20:15;3.25;;;2.25;;
46411;SDS011;32113;42.012;24.870;2022-07-29T14:22:41;4.83;;;2.73;;
46411;SDS011;32113;42.012;24.870;2022-07-29T14:25:07;7.88;;;2.58;;
46411;SDS011;32113;42.012;24.870;2022-07-29T14:27:33;5.20;;;3.03;;
46411;SDS011;32113;42.012;24.870;2022-07-29T14:29:58;6.87;;;2.87;;
46411;SDS011;32113;42.012;24.870;2022-07-29T14:32:24;3.80;;;2.40;;
46411;SDS011;32113;42.012;24.870;2022-07-29T14:34:49;4.50;;;2.63;;
46411;SDS011;32113;42.012;24.870;2022-07-29T14:37:15;3.33;;;2.47;;
46411;SDS011;32113;42.012;24.870;2022-07-29T14:39:40;3.83;;;2.70;;
46411;SDS011;32113;42.012;24.870;2022-07-29T14:42:06;4.67;;;2.63;;
46411;SDS011;32113;42.012;24.870;2022-07-29T14:44:32;4.68;;;2.35;;
46411;SDS011;32113;42.012;24.870;2022-07-29T14:46:58;3.63;;;2.55;;
46411;SDS011;32113;42.012;24.870;2022-07-29T14:49:25;6.78;;;2.80;;
46411;SDS011;32113;42.012;24.870;2022-07-29T14:51:50;4.50;;;2.90;;
46411;SDS011;32113;42.012;24.870;2022-07-29T14:54:16;4.47;;;2.80;;
46411;SDS011;32113;42.012;24.870;2022-07-29T14:56:42;3.93;;;2.63;;
46411;SDS011;32113;42.012;24.870;2022-07-29T14:59:07;4.37;;;3.00;;
46411;SDS011;32113;42.012;24.870;2022-07-29T15:01:33;8.50;;;2.77;;
46411;SDS011;32113;42.012;24.870;2022-07-29T15:03:58;5.13;;;2.70;;
46411;SDS011;32113;42.012;24.870;2022-07-29T15:06:23;4.57;;;2.53;;
46411;SDS011;32113;42.012;24.870;2022-07-29T15:08:49;4.37;;;2.60;;
46411;SDS011;32113;42.012;24.870;2022-07-29T15:11:14;3.13;;;2.47;;
46411;SDS011;32113;42.012;24.870;2022-07-29T15:13:39;4.00;;;2.70;;
46411;SDS011;32113;42.012;24.870;2022-07-29T15:16:05;5.73;;;3.77;;
46411;SDS011;32113;42.012;24.870;2022-07-29T15:18:30;3.93;;;2.90;;
46411;SDS011;32113;42.012;24.870;2022-07-29T15:20:56;11.40;;;3.50;;
46411;SDS011;32113;42.012;24.870;2022-07-29T15:23:21;8.50;;;2.57;;
46411;SDS011;32113;42.012;24.870;2022-07-29T15:25:47;3.93;;;2.63;;
46411;SDS011;32113;42.012;24.870;2022-07-29T15:28:12;5.80;;;2.70;;
46411;SDS011;32113;42.012;24.870;2022-07-29T15:30:38;5.50;;;2.93;;
46411;SDS011;32113;42.012;24.870;2022-07-29T15:33:09;29.75;;;6.20;;
46411;SDS011;32113;42.012;24.870;2022-07-29T15:35:35;4.10;;;2.55;;
46411;SDS011;32113;42.012;24.870;2022-07-29T15:38:01;4.13;;;2.58;;
46411;SDS011;32113;42.012;24.870;2022-07-29T15:40:26;16.47;;;4.43;;
46411;SDS011;32113;42.012;24.870;2022-07-29T15:42:52;7.03;;;3.27;;
46411;SDS011;32113;42.012;24.870;2022-07-29T15:45:17;8.82;;;2.75;;
46411;SDS011;32113;42.012;24.870;2022-07-29T15:47:43;3.90;;;2.40;;
46411;SDS011;32113;42.012;24.870;2022-07-29T15:50:08;5.50;;;2.50;;
46411;SDS011;32113;42.012;24.870;2022-07-29T15:52:38;4.10;;;2.70;;
46411;SDS011;32113;42.012;24.870;2022-07-29T15:55:04;7.37;;;2.67;;
46411;SDS011;32113;42.012;24.870;2022-07-29T15:57:30;4.77;;;2.97;;
46411;SDS011;32113;42.012;24.870;2022-07-29T15:59:55;5.63;;;2.63;;